Dot, Texas
Current Conditions -  °F | °C
As of 11:55 PM on Wednesday 17 Dec 2014 (Local Time) from KTPL Reporting Station
Overcast Overcast  
Wind Chill: 44°   Ceiling: 1300
Heat Index: 46°   Visibility: 6mi
Dew Point: 43°   Wind: 6mph
Humidity: 87%   Direction: 350°N
Pressure: 30.14"   Gusts: NA
Location:  31.265°N, 97.2164°W
Report Text: KTPL 180555Z AUTO 35005KT 6SM SCT006 OVC013 08/06 A3014 RMK AO1 10090 20080 400900070 52007
Loading
Personal Weather Stations






























Interactive Weather Map New forecast layout! Learn more

10-Day Weather Forecast

Advertisements
Track Severe Weather on mobile